Dzaoudzi/Pamanzi, Mayotte
Current Conditions -  °F | °C
As of 11:00 PM on Thursday 23 Oct 2014 (Local Time) from FMCZ Reporting Station
Overcast Overcast  
Wind Chill: 79°   Ceiling: 4700
Heat Index: 81°   Visibility: 6mi
Dew Point: 70°   Wind: 5mph
Humidity: 74%   Direction: 230°SW
Pressure: 29.94"   Gusts: NA
Location:  12.81°S, 45.28°E
Report Text: FMCZ 232000Z AUTO 23004KT 9999 OVC047/// 26/21 Q1014
Loading
Personal Weather Stations






























Interactive Weather Map
Tropical Storm Tracking
New forecast layout! Learn more

10-Day Weather Forecast

Advertisements
Track Severe Weather on mobile